sensor_id;sensor_type;location;lat;lon;timestamp;temperature;humidity
68251;DHT22;55066;51.560;4.642;2023-12-04T00:01:56;0.71;99.99
68251;DHT22;55066;51.560;4.642;2023-12-04T00:04:22;0.70;99.99
68251;DHT22;55066;51.560;4.642;2023-12-04T00:06:49;0.71;99.99
68251;DHT22;55066;51.560;4.642;2023-12-04T00:09:17;0.73;99.99
68251;DHT22;55066;51.560;4.642;2023-12-04T00:11:43;0.71;99.99
68251;DHT22;55066;51.560;4.642;2023-12-04T00:14:11;0.73;99.99
68251;DHT22;55066;51.560;4.642;2023-12-04T00:16:38;0.74;99.99
68251;DHT22;55066;51.560;4.642;2023-12-04T00:19:05;0.74;99.99
68251;DHT22;55066;51.560;4.642;2023-12-04T00:21:33;0.76;99.99
68251;DHT22;55066;51.560;4.642;2023-12-04T00:23:59;0.70;99.99
68251;DHT22;55066;51.560;4.642;2023-12-04T00:26:27;0.77;99.99
68251;DHT22;55066;51.560;4.642;2023-12-04T00:28:52;0.76;99.99
68251;DHT22;55066;51.560;4.642;2023-12-04T00:31:18;0.74;99.99
68251;DHT22;55066;51.560;4.642;2023-12-04T00:33:46;0.77;99.99
68251;DHT22;55066;51.560;4.642;2023-12-04T00:36:14;0.79;99.99
68251;DHT22;55066;51.560;4.642;2023-12-04T00:38:40;0.79;99.99
68251;DHT22;55066;51.560;4.642;2023-12-04T00:41:06;0.73;99.99
68251;DHT22;55066;51.560;4.642;2023-12-04T00:43:33;0.77;99.99
68251;DHT22;55066;51.560;4.642;2023-12-04T00:46:02;0.77;99.99
68251;DHT22;55066;51.560;4.642;2023-12-04T00:48:33;0.70;99.99
68251;DHT22;55066;51.560;4.642;2023-12-04T00:50:59;0.79;99.99
68251;DHT22;55066;51.560;4.642;2023-12-04T00:53:25;0.79;99.99
68251;DHT22;55066;51.560;4.642;2023-12-04T00:55:53;0.76;99.99
68251;DHT22;55066;51.560;4.642;2023-12-04T00:58:19;0.76;99.99
68251;DHT22;55066;51.560;4.642;2023-12-04T01:00:45;0.83;99.99
68251;DHT22;55066;51.560;4.642;2023-12-04T01:03:10;0.87;99.99
68251;DHT22;55066;51.560;4.642;2023-12-04T01:05:36;0.80;99.99
68251;DHT22;55066;51.560;4.642;2023-12-04T01:08:03;0.83;99.99
68251;DHT22;55066;51.560;4.642;2023-12-04T01:10:29;0.91;99.99
68251;DHT22;55066;51.560;4.642;2023-12-04T01:12:54;0.95;99.99
68251;DHT22;55066;51.560;4.642;2023-12-04T01:15:21;0.92;99.99
68251;DHT22;55066;51.560;4.642;2023-12-04T01:17:48;0.90;99.99
68251;DHT22;55066;51.560;4.642;2023-12-04T01:20:15;0.91;99.99
68251;DHT22;55066;51.560;4.642;2023-12-04T01:22:48;0.90;99.99
68251;DHT22;55066;51.560;4.642;2023-12-04T01:25:14;0.91;99.99
68251;DHT22;55066;51.560;4.642;2023-12-04T01:27:42;0.94;99.99
68251;DHT22;55066;51.560;4.642;2023-12-04T01:30:08;0.91;99.99
68251;DHT22;55066;51.560;4.642;2023-12-04T01:32:35;0.91;99.99
68251;DHT22;55066;51.560;4.642;2023-12-04T01:35:03;0.88;99.99
68251;DHT22;55066;51.560;4.642;2023-12-04T01:37:30;0.95;99.99
68251;DHT22;55066;51.560;4.642;2023-12-04T01:39:58;0.94;99.99
68251;DHT22;55066;51.560;4.642;2023-12-04T01:42:26;0.87;99.99
68251;DHT22;55066;51.560;4.642;2023-12-04T01:44:52;0.90;99.99
68251;DHT22;55066;51.560;4.642;2023-12-04T01:47:18;0.81;99.99
68251;DHT22;55066;51.560;4.642;2023-12-04T01:49:44;0.88;99.99
68251;DHT22;55066;51.560;4.642;2023-12-04T01:52:11;0.88;99.99
68251;DHT22;55066;51.560;4.642;2023-12-04T01:54:43;0.79;99.99
68251;DHT22;55066;51.560;4.642;2023-12-04T01:57:09;0.80;99.99
68251;DHT22;55066;51.560;4.642;2023-12-04T01:59:35;0.87;99.99
68251;DHT22;55066;51.560;4.642;2023-12-04T02:02:01;0.84;99.99
68251;DHT22;55066;51.560;4.642;2023-12-04T02:04:32;0.84;99.99
68251;DHT22;55066;51.560;4.642;2023-12-04T02:06:59;0.87;99.99
68251;DHT22;55066;51.560;4.642;2023-12-04T02:09:27;0.90;99.99
68251;DHT22;55066;51.560;4.642;2023-12-04T02:11:53;0.87;99.99
68251;DHT22;55066;51.560;4.642;2023-12-04T02:14:22;0.80;99.99
68251;DHT22;55066;51.560;4.642;2023-12-04T02:16:50;0.88;99.99
68251;DHT22;55066;51.560;4.642;2023-12-04T02:19:24;0.91;99.99
68251;DHT22;55066;51.560;4.642;2023-12-04T02:22:01;0.91;99.99
68251;DHT22;55066;51.560;4.642;2023-12-04T02:24:35;0.87;99.99
68251;DHT22;55066;51.560;4.642;2023-12-04T02:29:46;0.84;99.99
68251;DHT22;55066;51.560;4.642;2023-12-04T02:32:15;0.91;99.99
68251;DHT22;55066;51.560;4.642;2023-12-04T02:34:43;0.87;99.99
68251;DHT22;55066;51.560;4.642;2023-12-04T02:37:11;0.88;99.99
68251;DHT22;55066;51.560;4.642;2023-12-04T02:39:37;0.95;99.99
68251;DHT22;55066;51.560;4.642;2023-12-04T02:42:04;0.94;99.99
68251;DHT22;55066;51.560;4.642;2023-12-04T02:44:29;0.90;99.99
68251;DHT22;55066;51.560;4.642;2023-12-04T02:46:59;0.90;99.99
68251;DHT22;55066;51.560;4.642;2023-12-04T02:49:30;0.87;99.99
68251;DHT22;55066;51.560;4.642;2023-12-04T02:51:59;0.92;99.99
68251;DHT22;55066;51.560;4.642;2023-12-04T02:54:30;0.90;99.99
68251;DHT22;55066;51.560;4.642;2023-12-04T02:56:59;0.85;99.99
68251;DHT22;55066;51.560;4.642;2023-12-04T02:59:24;0.92;99.99
68251;DHT22;55066;51.560;4.642;2023-12-04T03:01:50;0.85;99.99
68251;DHT22;55066;51.560;4.642;2023-12-04T03:04:16;0.91;99.99
68251;DHT22;55066;51.560;4.642;2023-12-04T03:06:44;0.92;99.99
68251;DHT22;55066;51.560;4.642;2023-12-04T03:09:10;0.94;99.99
68251;DHT22;55066;51.560;4.642;2023-12-04T03:11:39;0.90;99.99
68251;DHT22;55066;51.560;4.642;2023-12-04T03:14:07;0.90;99.99
68251;DHT22;55066;51.560;4.642;2023-12-04T03:16:33;0.92;99.99
68251;DHT22;55066;51.560;4.642;2023-12-04T03:18:59;0.94;99.99
68251;DHT22;55066;51.560;4.642;2023-12-04T03:21:25;0.97;99.99
68251;DHT22;55066;51.560;4.642;2023-12-04T03:23:51;0.87;99.99
68251;DHT22;55066;51.560;4.642;2023-12-04T03:26:20;0.91;99.99
68251;DHT22;55066;51.560;4.642;2023-12-04T03:28:51;0.87;99.99
68251;DHT22;55066;51.560;4.642;2023-12-04T03:31:18;0.84;99.99
68251;DHT22;55066;51.560;4.642;2023-12-04T03:33:46;0.92;99.99
68251;DHT22;55066;51.560;4.642;2023-12-04T03:36:14;0.85;99.99
68251;DHT22;55066;51.560;4.642;2023-12-04T03:38:41;0.88;99.99
68251;DHT22;55066;51.560;4.642;2023-12-04T03:41:16;0.83;99.99
68251;DHT22;55066;51.560;4.642;2023-12-04T03:43:43;0.85;99.99
68251;DHT22;55066;51.560;4.642;2023-12-04T03:46:08;0.92;99.99
68251;DHT22;55066;51.560;4.642;2023-12-04T03:48:34;0.88;99.99
68251;DHT22;55066;51.560;4.642;2023-12-04T03:51:00;0.81;99.99
68251;DHT22;55066;51.560;4.642;2023-12-04T03:53:29;0.92;99.99
68251;DHT22;55066;51.560;4.642;2023-12-04T03:55:58;0.92;99.99
68251;DHT22;55066;51.560;4.642;2023-12-04T03:58:23;0.97;99.99
68251;DHT22;55066;51.560;4.642;2023-12-04T04:00:50;0.92;99.99
68251;DHT22;55066;51.560;4.642;2023-12-04T04:03:19;0.92;99.99
68251;DHT22;55066;51.560;4.642;2023-12-04T04:05:44;1.08;99.99
68251;DHT22;55066;51.560;4.642;2023-12-04T04:08:12;1.17;99.99
68251;DHT22;55066;51.560;4.642;2023-12-04T04:10:38;1.21;99.99
68251;DHT22;55066;51.560;4.642;2023-12-04T04:13:03;1.24;99.99
68251;DHT22;55066;51.560;4.642;2023-12-04T04:15:35;1.29;99.99
68251;DHT22;55066;51.560;4.642;2023-12-04T04:18:00;1.31;99.99
68251;DHT22;55066;51.560;4.642;2023-12-04T04:20:26;1.32;99.99
68251;DHT22;55066;51.560;4.642;2023-12-04T04:22:53;1.35;99.99
68251;DHT22;55066;51.560;4.642;2023-12-04T04:25:21;1.38;99.99
68251;DHT22;55066;51.560;4.642;2023-12-04T04:27:51;1.36;99.99
68251;DHT22;55066;51.560;4.642;2023-12-04T04:30:20;1.49;99.99
68251;DHT22;55066;51.560;4.642;2023-12-04T04:32:49;1.57;99.99
68251;DHT22;55066;51.560;4.642;2023-12-04T04:35:14;1.62;99.99
68251;DHT22;55066;51.560;4.642;2023-12-04T04:37:43;1.63;99.99
68251;DHT22;55066;51.560;4.642;2023-12-04T04:40:10;1.66;99.99
68251;DHT22;55066;51.560;4.642;2023-12-04T04:42:43;1.67;99.99
68251;DHT22;55066;51.560;4.642;2023-12-04T04:45:13;1.67;99.99
68251;DHT22;55066;51.560;4.642;2023-12-04T04:47:39;1.74;99.99
68251;DHT22;55066;51.560;4.642;2023-12-04T04:50:06;1.71;99.99
68251;DHT22;55066;51.560;4.642;2023-12-04T04:52:34;1.80;99.99
68251;DHT22;55066;51.560;4.642;2023-12-04T04:54:59;1.81;99.99
68251;DHT22;55066;51.560;4.642;2023-12-04T04:57:25;1.84;99.99
68251;DHT22;55066;51.560;4.642;2023-12-04T04:59:52;1.84;99.99
68251;DHT22;55066;51.560;4.642;2023-12-04T05:02:18;1.83;99.99
68251;DHT22;55066;51.560;4.642;2023-12-04T05:04:44;1.85;99.99
68251;DHT22;55066;51.560;4.642;2023-12-04T05:07:10;1.87;99.99
68251;DHT22;55066;51.560;4.642;2023-12-04T05:09:37;1.83;99.99
68251;DHT22;55066;51.560;4.642;2023-12-04T05:12:03;1.84;99.99
68251;DHT22;55066;51.560;4.642;2023-12-04T05:14:29;1.85;99.99
68251;DHT22;55066;51.560;4.642;2023-12-04T05:16:54;1.91;99.99
68251;DHT22;55066;51.560;4.642;2023-12-04T05:19:20;1.88;99.99
68251;DHT22;55066;51.560;4.642;2023-12-04T05:21:45;1.85;99.99
68251;DHT22;55066;51.560;4.642;2023-12-04T05:24:11;1.87;99.99
68251;DHT22;55066;51.560;4.642;2023-12-04T05:26:37;1.83;99.99
68251;DHT22;55066;51.560;4.642;2023-12-04T05:29:03;1.83;99.99
68251;DHT22;55066;51.560;4.642;2023-12-04T05:31:30;1.83;99.99
68251;DHT22;55066;51.560;4.642;2023-12-04T05:33:56;1.78;99.99
68251;DHT22;55066;51.560;4.642;2023-12-04T05:36:21;1.84;99.99
68251;DHT22;55066;51.560;4.642;2023-12-04T05:38:47;1.84;99.99
68251;DHT22;55066;51.560;4.642;2023-12-04T05:41:14;1.84;99.99
68251;DHT22;55066;51.560;4.642;2023-12-04T05:43:40;1.84;99.99
68251;DHT22;55066;51.560;4.642;2023-12-04T05:46:10;1.85;99.99
68251;DHT22;55066;51.560;4.642;2023-12-04T05:48:39;1.87;99.99
68251;DHT22;55066;51.560;4.642;2023-12-04T05:51:05;1.90;99.99
68251;DHT22;55066;51.560;4.642;2023-12-04T05:53:32;1.90;99.99
68251;DHT22;55066;51.560;4.642;2023-12-04T05:55:59;1.84;99.99
68251;DHT22;55066;51.560;4.642;2023-12-04T05:58:26;1.83;99.99
68251;DHT22;55066;51.560;4.642;2023-12-04T06:00:52;1.85;99.99
68251;DHT22;55066;51.560;4.642;2023-12-04T06:03:19;1.84;99.99
68251;DHT22;55066;51.560;4.642;2023-12-04T06:05:47;1.87;99.99
68251;DHT22;55066;51.560;4.642;2023-12-04T06:08:14;1.87;99.99
68251;DHT22;55066;51.560;4.642;2023-12-04T06:10:55;1.88;99.99
68251;DHT22;55066;51.560;4.642;2023-12-04T06:13:24;1.91;99.99
68251;DHT22;55066;51.560;4.642;2023-12-04T06:16:01;1.90;99.99
68251;DHT22;55066;51.560;4.642;2023-12-04T06:18:29;1.91;99.99
68251;DHT22;55066;51.560;4.642;2023-12-04T06:20:55;1.90;99.99
68251;DHT22;55066;51.560;4.642;2023-12-04T06:23:25;1.87;99.99
68251;DHT22;55066;51.560;4.642;2023-12-04T06:25:52;1.84;99.99
68251;DHT22;55066;51.560;4.642;2023-12-04T06:28:34;1.81;99.99
68251;DHT22;55066;51.560;4.642;2023-12-04T06:31:01;1.80;99.99
68251;DHT22;55066;51.560;4.642;2023-12-04T06:33:28;1.80;99.99
68251;DHT22;55066;51.560;4.642;2023-12-04T06:35:54;1.81;99.99
68251;DHT22;55066;51.560;4.642;2023-12-04T06:38:24;1.80;99.99
68251;DHT22;55066;51.560;4.642;2023-12-04T06:40:51;1.81;99.99
68251;DHT22;55066;51.560;4.642;2023-12-04T06:43:17;1.80;99.99
68251;DHT22;55066;51.560;4.642;2023-12-04T06:45:45;1.84;99.99
68251;DHT22;55066;51.560;4.642;2023-12-04T06:48:13;1.87;99.99
68251;DHT22;55066;51.560;4.642;2023-12-04T06:50:43;1.81;99.99
68251;DHT22;55066;51.560;4.642;2023-12-04T06:53:09;1.91;99.99
68251;DHT22;55066;51.560;4.642;2023-12-04T06:55:38;1.94;99.99
68251;DHT22;55066;51.560;4.642;2023-12-04T06:58:03;1.95;99.99
68251;DHT22;55066;51.560;4.642;2023-12-04T07:00:34;1.87;99.99
68251;DHT22;55066;51.560;4.642;2023-12-04T07:03:02;1.88;99.99
68251;DHT22;55066;51.560;4.642;2023-12-04T07:05:28;1.87;99.99
68251;DHT22;55066;51.560;4.642;2023-12-04T07:07:54;1.91;99.99
68251;DHT22;55066;51.560;4.642;2023-12-04T07:10:22;1.94;99.99
68251;DHT22;55066;51.560;4.642;2023-12-04T07:12:49;1.94;99.99
68251;DHT22;55066;51.560;4.642;2023-12-04T07:15:16;1.95;99.99
68251;DHT22;55066;51.560;4.642;2023-12-04T07:17:43;1.97;99.99
68251;DHT22;55066;51.560;4.642;2023-12-04T07:20:09;1.98;99.99
68251;DHT22;55066;51.560;4.642;2023-12-04T07:22:37;1.97;99.95
68251;DHT22;55066;51.560;4.642;2023-12-04T07:25:02;2.00;99.52
68251;DHT22;55066;51.560;4.642;2023-12-04T07:27:28;1.98;99.54
68251;DHT22;55066;51.560;4.642;2023-12-04T07:29:53;2.01;99.63
68251;DHT22;55066;51.560;4.642;2023-12-04T07:32:18;1.93;99.99
68251;DHT22;55066;51.560;4.642;2023-12-04T07:34:45;1.95;99.99
68251;DHT22;55066;51.560;4.642;2023-12-04T07:37:11;2.00;99.81
68251;DHT22;55066;51.560;4.642;2023-12-04T07:39:37;1.97;99.99
68251;DHT22;55066;51.560;4.642;2023-12-04T07:42:02;2.01;99.52
68251;DHT22;55066;51.560;4.642;2023-12-04T07:44:29;1.97;99.99
68251;DHT22;55066;51.560;4.642;2023-12-04T07:46:57;2.00;99.47
68251;DHT22;55066;51.560;4.642;2023-12-04T07:49:23;1.98;99.85
68251;DHT22;55066;51.560;4.642;2023-12-04T07:51:51;2.04;99.36
68251;DHT22;55066;51.560;4.642;2023-12-04T07:54:18;2.07;99.31
68251;DHT22;55066;51.560;4.642;2023-12-04T07:56:45;2.11;99.33
68251;DHT22;55066;51.560;4.642;2023-12-04T07:59:13;2.07;99.36
68251;DHT22;55066;51.560;4.642;2023-12-04T08:01:39;2.08;99.17
68251;DHT22;55066;51.560;4.642;2023-12-04T08:04:05;2.11;99.84
68251;DHT22;55066;51.560;4.642;2023-12-04T08:06:33;2.18;98.68
68251;DHT22;55066;51.560;4.642;2023-12-04T08:09:02;2.22;98.93
68251;DHT22;55066;51.560;4.642;2023-12-04T08:11:33;2.25;99.33
68251;DHT22;55066;51.560;4.642;2023-12-04T08:14:01;2.28;97.85
68251;DHT22;55066;51.560;4.642;2023-12-04T08:16:29;2.28;98.61
68251;DHT22;55066;51.560;4.642;2023-12-04T08:18:57;2.26;98.76
68251;DHT22;55066;51.560;4.642;2023-12-04T08:21:25;2.32;97.99
68251;DHT22;55066;51.560;4.642;2023-12-04T08:23:52;2.33;98.36
68251;DHT22;55066;51.560;4.642;2023-12-04T08:26:22;2.38;98.37
68251;DHT22;55066;51.560;4.642;2023-12-04T08:28:49;2.39;98.71
68251;DHT22;55066;51.560;4.642;2023-12-04T08:31:20;2.41;97.76
68251;DHT22;55066;51.560;4.642;2023-12-04T08:33:56;2.46;97.07
68251;DHT22;55066;51.560;4.642;2023-12-04T08:36:25;2.48;97.31
68251;DHT22;55066;51.560;4.642;2023-12-04T08:38:51;2.46;97.67
68251;DHT22;55066;51.560;4.642;2023-12-04T08:41:27;2.53;97.13
68251;DHT22;55066;51.560;4.642;2023-12-04T08:43:54;2.54;97.11
68251;DHT22;55066;51.560;4.642;2023-12-04T08:46:21;2.54;97.78
68251;DHT22;55066;51.560;4.642;2023-12-04T08:48:52;2.57;97.21
68251;DHT22;55066;51.560;4.642;2023-12-04T08:51:19;2.60;97.39
68251;DHT22;55066;51.560;4.642;2023-12-04T08:53:45;2.57;97.70
68251;DHT22;55066;51.560;4.642;2023-12-04T08:56:10;2.57;97.47
68251;DHT22;55066;51.560;4.642;2023-12-04T08:58:36;2.64;96.86
68251;DHT22;55066;51.560;4.642;2023-12-04T09:01:05;2.64;97.21
68251;DHT22;55066;51.560;4.642;2023-12-04T09:03:31;2.64;97.02
68251;DHT22;55066;51.560;4.642;2023-12-04T09:06:02;2.63;97.27
68251;DHT22;55066;51.560;4.642;2023-12-04T09:08:29;2.69;97.64
68251;DHT22;55066;51.560;4.642;2023-12-04T09:10:59;2.73;96.62
68251;DHT22;55066;51.560;4.642;2023-12-04T09:13:25;2.76;96.25
68251;DHT22;55066;51.560;4.642;2023-12-04T09:15:52;2.76;97.34
68251;DHT22;55066;51.560;4.642;2023-12-04T09:18:23;2.75;97.58
68251;DHT22;55066;51.560;4.642;2023-12-04T09:20:49;2.76;97.27
68251;DHT22;55066;51.560;4.642;2023-12-04T09:23:15;2.83;97.11
68251;DHT22;55066;51.560;4.642;2023-12-04T09:25:49;2.81;96.95
68251;DHT22;55066;51.560;4.642;2023-12-04T09:28:15;2.86;97.33
68251;DHT22;55066;51.560;4.642;2023-12-04T09:30:41;2.86;97.31
68251;DHT22;55066;51.560;4.642;2023-12-04T09:33:10;2.88;97.12
68251;DHT22;55066;51.560;4.642;2023-12-04T09:35:35;2.93;96.59
68251;DHT22;55066;51.560;4.642;2023-12-04T09:38:01;2.96;96.81
68251;DHT22;55066;51.560;4.642;2023-12-04T09:40:28;2.98;96.91
68251;DHT22;55066;51.560;4.642;2023-12-04T09:42:54;3.03;96.83
68251;DHT22;55066;51.560;4.642;2023-12-04T09:45:23;3.07;96.72
68251;DHT22;55066;51.560;4.642;2023-12-04T09:47:54;3.09;96.52
68251;DHT22;55066;51.560;4.642;2023-12-04T09:50:21;3.09;96.91
68251;DHT22;55066;51.560;4.642;2023-12-04T09:52:51;3.12;97.19
68251;DHT22;55066;51.560;4.642;2023-12-04T09:55:20;3.11;97.54
68251;DHT22;55066;51.560;4.642;2023-12-04T09:57:46;3.12;97.40
68251;DHT22;55066;51.560;4.642;2023-12-04T10:00:14;3.15;96.59
68251;DHT22;55066;51.560;4.642;2023-12-04T10:02:41;3.12;97.93
68251;DHT22;55066;51.560;4.642;2023-12-04T10:05:10;3.18;96.46
68251;DHT22;55066;51.560;4.642;2023-12-04T10:07:39;3.26;96.03
68251;DHT22;55066;51.560;4.642;2023-12-04T10:10:08;3.29;96.74
68251;DHT22;55066;51.560;4.642;2023-12-04T10:12:36;3.31;96.26
68251;DHT22;55066;51.560;4.642;2023-12-04T10:15:12;3.35;96.27
68251;DHT22;55066;51.560;4.642;2023-12-04T10:17:39;3.36;95.89
68251;DHT22;55066;51.560;4.642;2023-12-04T10:20:15;3.45;96.63
68251;DHT22;55066;51.560;4.642;2023-12-04T10:25:23;3.52;95.24
68251;DHT22;55066;51.560;4.642;2023-12-04T10:27:51;3.49;96.20
68251;DHT22;55066;51.560;4.642;2023-12-04T10:30:29;3.52;96.25
68251;DHT22;55066;51.560;4.642;2023-12-04T10:32:58;3.56;96.08
68251;DHT22;55066;51.560;4.642;2023-12-04T10:35:28;3.52;96.39
68251;DHT22;55066;51.560;4.642;2023-12-04T10:38:00;3.52;96.76
68251;DHT22;55066;51.560;4.642;2023-12-04T10:40:29;3.53;97.10
68251;DHT22;55066;51.560;4.642;2023-12-04T10:45:37;3.49;97.88
68251;DHT22;55066;51.560;4.642;2023-12-04T10:48:04;3.46;97.90
68251;DHT22;55066;51.560;4.642;2023-12-04T10:50:36;3.43;98.47
68251;DHT22;55066;51.560;4.642;2023-12-04T10:53:07;3.39;98.56
68251;DHT22;55066;51.560;4.642;2023-12-04T10:55:37;3.46;98.73
68251;DHT22;55066;51.560;4.642;2023-12-04T10:58:13;3.53;98.91
68251;DHT22;55066;51.560;4.642;2023-12-04T11:00:48;3.58;98.73
68251;DHT22;55066;51.560;4.642;2023-12-04T11:04:02;3.46;99.91
68251;DHT22;55066;51.560;4.642;2023-12-04T11:06:10;3.40;99.99
68251;DHT22;55066;51.560;4.642;2023-12-04T11:08:38;3.35;99.99
68251;DHT22;55066;51.560;4.642;2023-12-04T11:11:10;3.39;99.99
68251;DHT22;55066;51.560;4.642;2023-12-04T11:13:40;3.43;99.99
68251;DHT22;55066;51.560;4.642;2023-12-04T11:19:06;3.80;99.99
68251;DHT22;55066;51.560;4.642;2023-12-04T11:21:36;3.80;99.99
68251;DHT22;55066;51.560;4.642;2023-12-04T11:24:03;3.83;99.99
68251;DHT22;55066;51.560;4.642;2023-12-04T11:26:31;3.77;99.99
68251;DHT22;55066;51.560;4.642;2023-12-04T11:28:57;3.81;99.99
68251;DHT22;55066;51.560;4.642;2023-12-04T11:31:24;3.81;99.99
68251;DHT22;55066;51.560;4.642;2023-12-04T11:33:49;3.81;99.99
68251;DHT22;55066;51.560;4.642;2023-12-04T11:36:17;3.90;99.99
68251;DHT22;55066;51.560;4.642;2023-12-04T11:38:47;4.01;99.99
68251;DHT22;55066;51.560;4.642;2023-12-04T11:41:19;3.95;99.99
68251;DHT22;55066;51.560;4.642;2023-12-04T11:43:48;3.86;99.99
68251;DHT22;55066;51.560;4.642;2023-12-04T11:46:19;3.70;99.99
68251;DHT22;55066;51.560;4.642;2023-12-04T11:48:49;3.69;99.99
68251;DHT22;55066;51.560;4.642;2023-12-04T11:51:45;3.51;99.99
68251;DHT22;55066;51.560;4.642;2023-12-04T11:54:18;3.52;99.99
68251;DHT22;55066;51.560;4.642;2023-12-04T11:59:39;3.34;99.99
68251;DHT22;55066;51.560;4.642;2023-12-04T12:02:10;3.32;99.99
68251;DHT22;55066;51.560;4.642;2023-12-04T12:04:42;3.29;99.99
68251;DHT22;55066;51.560;4.642;2023-12-04T12:07:10;3.31;99.99
68251;DHT22;55066;51.560;4.642;2023-12-04T12:09:36;3.36;99.99
68251;DHT22;55066;51.560;4.642;2023-12-04T12:12:05;3.45;99.99
68251;DHT22;55066;51.560;4.642;2023-12-04T12:14:31;3.51;99.99
68251;DHT22;55066;51.560;4.642;2023-12-04T12:17:00;3.52;99.99
68251;DHT22;55066;51.560;4.642;2023-12-04T12:19:28;3.63;99.99
68251;DHT22;55066;51.560;4.642;2023-12-04T12:21:56;3.63;99.99
68251;DHT22;55066;51.560;4.642;2023-12-04T12:24:23;3.64;99.99
68251;DHT22;55066;51.560;4.642;2023-12-04T12:26:51;3.55;99.99
68251;DHT22;55066;51.560;4.642;2023-12-04T12:29:19;3.58;99.99
68251;DHT22;55066;51.560;4.642;2023-12-04T12:31:44;3.59;99.99
68251;DHT22;55066;51.560;4.642;2023-12-04T12:34:13;3.66;99.99
68251;DHT22;55066;51.560;4.642;2023-12-04T12:36:40;3.72;99.99
68251;DHT22;55066;51.560;4.642;2023-12-04T12:39:06;3.79;99.99
68251;DHT22;55066;51.560;4.642;2023-12-04T12:41:50;3.74;99.99
68251;DHT22;55066;51.560;4.642;2023-12-04T12:44:16;3.60;99.99
68251;DHT22;55066;51.560;4.642;2023-12-04T12:46:47;3.58;99.99
68251;DHT22;55066;51.560;4.642;2023-12-04T12:49:16;3.49;99.99
68251;DHT22;55066;51.560;4.642;2023-12-04T12:51:46;3.52;99.99
68251;DHT22;55066;51.560;4.642;2023-12-04T12:54:14;3.49;99.99
68251;DHT22;55066;51.560;4.642;2023-12-04T12:56:40;3.51;99.99
68251;DHT22;55066;51.560;4.642;2023-12-04T12:59:07;3.46;99.99
68251;DHT22;55066;51.560;4.642;2023-12-04T13:01:32;3.52;99.99
68251;DHT22;55066;51.560;4.642;2023-12-04T13:04:04;3.52;99.99
68251;DHT22;55066;51.560;4.642;2023-12-04T13:06:29;3.53;99.99
68251;DHT22;55066;51.560;4.642;2023-12-04T13:08:56;3.42;99.99
68251;DHT22;55066;51.560;4.642;2023-12-04T13:11:21;3.43;99.99
68251;DHT22;55066;51.560;4.642;2023-12-04T13:13:47;3.42;99.99
68251;DHT22;55066;51.560;4.642;2023-12-04T13:16:17;3.31;99.99
68251;DHT22;55066;51.560;4.642;2023-12-04T13:18:42;3.22;99.99
68251;DHT22;55066;51.560;4.642;2023-12-04T13:21:10;3.17;99.99
68251;DHT22;55066;51.560;4.642;2023-12-04T13:23:39;3.09;99.99
68251;DHT22;55066;51.560;4.642;2023-12-04T13:26:07;3.07;99.99
68251;DHT22;55066;51.560;4.642;2023-12-04T13:28:38;3.00;99.99
68251;DHT22;55066;51.560;4.642;2023-12-04T13:31:04;2.96;99.99
68251;DHT22;55066;51.560;4.642;2023-12-04T13:33:30;2.88;99.99
68251;DHT22;55066;51.560;4.642;2023-12-04T13:36:00;2.90;99.99
68251;DHT22;55066;51.560;4.642;2023-12-04T13:38:28;2.87;99.99
68251;DHT22;55066;51.560;4.642;2023-12-04T13:40:59;2.83;99.99
68251;DHT22;55066;51.560;4.642;2023-12-04T13:43:34;2.83;99.99
68251;DHT22;55066;51.560;4.642;2023-12-04T13:46:18;2.76;99.99
68251;DHT22;55066;51.560;4.642;2023-12-04T13:48:47;2.80;99.99
68251;DHT22;55066;51.560;4.642;2023-12-04T13:51:13;2.81;99.99
68251;DHT22;55066;51.560;4.642;2023-12-04T13:53:39;2.84;99.99
68251;DHT22;55066;51.560;4.642;2023-12-04T13:56:12;2.79;99.99
68251;DHT22;55066;51.560;4.642;2023-12-04T13:59:09;2.73;99.99
68251;DHT22;55066;51.560;4.642;2023-12-04T14:01:43;2.72;99.99
68251;DHT22;55066;51.560;4.642;2023-12-04T14:04:09;2.72;99.99
68251;DHT22;55066;51.560;4.642;2023-12-04T14:06:34;2.69;99.99
68251;DHT22;55066;51.560;4.642;2023-12-04T14:09:02;2.69;99.99
68251;DHT22;55066;51.560;4.642;2023-12-04T14:11:30;2.69;99.99
68251;DHT22;55066;51.560;4.642;2023-12-04T14:13:58;2.69;99.99
68251;DHT22;55066;51.560;4.642;2023-12-04T14:16:32;2.59;99.99
68251;DHT22;55066;51.560;4.642;2023-12-04T14:19:01;2.57;99.99
68251;DHT22;55066;51.560;4.642;2023-12-04T14:21:28;2.50;99.99
68251;DHT22;55066;51.560;4.642;2023-12-04T14:23:54;2.50;99.99
68251;DHT22;55066;51.560;4.642;2023-12-04T14:26:20;2.49;99.99
68251;DHT22;55066;51.560;4.642;2023-12-04T14:28:47;2.46;99.99
68251;DHT22;55066;51.560;4.642;2023-12-04T14:31:13;2.43;99.99
68251;DHT22;55066;51.560;4.642;2023-12-04T14:33:38;2.42;99.99
68251;DHT22;55066;51.560;4.642;2023-12-04T14:36:07;2.28;99.99
68251;DHT22;55066;51.560;4.642;2023-12-04T14:38:33;2.28;99.99
68251;DHT22;55066;51.560;4.642;2023-12-04T14:41:01;2.21;99.99
68251;DHT22;55066;51.560;4.642;2023-12-04T14:43:32;2.14;99.99
68251;DHT22;55066;51.560;4.642;2023-12-04T14:45:58;2.14;99.99
68251;DHT22;55066;51.560;4.642;2023-12-04T14:48:25;2.12;99.99
68251;DHT22;55066;51.560;4.642;2023-12-04T14:50:55;2.17;99.99
68251;DHT22;55066;51.560;4.642;2023-12-04T14:53:25;2.18;99.99
68251;DHT22;55066;51.560;4.642;2023-12-04T14:55:56;2.14;99.99
68251;DHT22;55066;51.560;4.642;2023-12-04T14:58:40;2.12;99.99
68251;DHT22;55066;51.560;4.642;2023-12-04T15:01:06;2.10;99.99
68251;DHT22;55066;51.560;4.642;2023-12-04T15:03:44;2.11;99.99
68251;DHT22;55066;51.560;4.642;2023-12-04T15:06:18;2.08;99.99
68251;DHT22;55066;51.560;4.642;2023-12-04T15:09:06;2.10;99.99
68251;DHT22;55066;51.560;4.642;2023-12-04T15:11:55;2.08;99.99
68251;DHT22;55066;51.560;4.642;2023-12-04T15:14:39;2.07;99.99
68251;DHT22;55066;51.560;4.642;2023-12-04T15:17:23;2.07;99.99
68251;DHT22;55066;51.560;4.642;2023-12-04T15:19:57;2.00;99.99
68251;DHT22;55066;51.560;4.642;2023-12-04T15:22:43;2.05;99.99
68251;DHT22;55066;51.560;4.642;2023-12-04T15:25:08;2.04;99.99
68251;DHT22;55066;51.560;4.642;2023-12-04T15:27:37;2.00;99.99
68251;DHT22;55066;51.560;4.642;2023-12-04T15:30:03;2.05;99.99
68251;DHT22;55066;51.560;4.642;2023-12-04T15:32:31;2.04;99.99
68251;DHT22;55066;51.560;4.642;2023-12-04T15:35:00;2.00;99.99
68251;DHT22;55066;51.560;4.642;2023-12-04T15:37:27;2.01;99.99
68251;DHT22;55066;51.560;4.642;2023-12-04T15:39:52;2.03;99.99
68251;DHT22;55066;51.560;4.642;2023-12-04T15:42:20;2.01;99.99
68251;DHT22;55066;51.560;4.642;2023-12-04T15:44:50;2.00;99.99
68251;DHT22;55066;51.560;4.642;2023-12-04T15:47:19;2.00;99.99
68251;DHT22;55066;51.560;4.642;2023-12-04T15:49:48;2.04;99.99
68251;DHT22;55066;51.560;4.642;2023-12-04T15:52:14;2.00;99.99
68251;DHT22;55066;51.560;4.642;2023-12-04T15:54:44;2.00;99.99
68251;DHT22;55066;51.560;4.642;2023-12-04T15:57:11;2.07;99.99
68251;DHT22;55066;51.560;4.642;2023-12-04T15:59:37;2.04;99.99
68251;DHT22;55066;51.560;4.642;2023-12-04T16:02:05;2.03;99.99
68251;DHT22;55066;51.560;4.642;2023-12-04T16:04:32;2.01;99.99
68251;DHT22;55066;51.560;4.642;2023-12-04T16:06:58;2.04;99.99